Time;durP1;ratioP1;P1;durP2;ratioP2;P2;SDS_P1;SDS_P2;PMS_P1;PMS_P2;Temp;Humidity;BMP_temperature;BMP_pressure;BME280_temperature;BME280_humidity;BME280_pressure;Samples;Min_cycle;Max_cycle;Signal;HPM_P1;HPM_P2
2021/11/21 00:02:23;;;;;;;0.20;0.20;;;;;;;;;;5005662;28;20034;-82
2021/11/21 00:04:50;;;;;;;0.63;0.63;;;;;;;;;;4998809;28;20029;-82
2021/11/21 00:07:15;;;;;;;0.10;0.10;;;;;;;;;;4995825;28;20048;-83
2021/11/21 00:09:40;;;;;;;0.60;0.47;;;;;;;;;;5004220;28;20477;-83
2021/11/21 00:12:06;;;;;;;0.98;0.43;;;;;;;;;;4997301;28;20441;-83
2021/11/21 00:14:31;;;;;;;0.20;0.20;;;;;;;;;;4994561;28;20037;-83
2021/11/21 00:17:00;;;;;;;0.03;0.03;;;;;;;;;;4999052;28;20092;-83
2021/11/21 00:19:26;;;;;;;0.50;0.50;;;;;;;;;;5001718;28;20518;-83
2021/11/21 00:21:51;;;;;;;0.60;0.60;;;;;;;;;;4990692;28;20118;-83
2021/11/21 00:24:16;;;;;;;0.50;0.47;;;;;;;;;;4990663;28;20034;-84
2021/11/21 00:26:42;;;;;;;0.10;0.10;;;;;;;;;;5013615;28;20029;-84
2021/11/21 00:29:07;;;;;;;0.47;0.47;;;;;;;;;;5002186;28;20036;-83
2021/11/21 00:31:32;;;;;;;0.10;0.10;;;;;;;;;;4994944;28;20050;-83
2021/11/21 00:33:58;;;;;;;0.10;0.10;;;;;;;;;;4995909;28;20421;-84
2021/11/21 00:36:23;;;;;;;0.20;0.20;;;;;;;;;;5009894;28;20069;-83
2021/11/21 00:38:48;;;;;;;0.17;0.17;;;;;;;;;;4994868;28;20041;-83
2021/11/21 00:41:14;;;;;;;0.43;0.43;;;;;;;;;;4994655;28;20417;-83
2021/11/21 00:43:40;;;;;;;0.00;0.00;;;;;;;;;;5014181;28;20385;-83
2021/11/21 00:46:06;;;;;;;1.30;0.55;;;;;;;;;;5006994;28;20034;-83
2021/11/21 00:48:31;;;;;;;0.00;0.00;;;;;;;;;;4994911;28;20352;-82
2021/11/21 00:50:59;;;;;;;0.30;0.20;;;;;;;;;;5001638;28;20030;-82
2021/11/21 00:53:25;;;;;;;0.10;0.10;;;;;;;;;;5003301;28;20034;-82
2021/11/21 00:55:54;;;;;;;0.10;0.10;;;;;;;;;;4994602;28;20468;-83
2021/11/21 00:58:19;;;;;;;0.30;0.30;;;;;;;;;;4992255;28;20042;-83
2021/11/21 01:00:46;;;;;;;0.10;0.10;;;;;;;;;;4994314;28;20546;-83
2021/11/21 01:03:13;;;;;;;0.10;0.10;;;;;;;;;;5002758;28;20477;-83
2021/11/21 01:05:42;;;;;;;0.05;0.05;;;;;;;;;;4993788;28;20382;-83
2021/11/21 01:08:08;;;;;;;1.40;0.57;;;;;;;;;;4993472;28;20101;-83
2021/11/21 01:10:33;;;;;;;0.10;0.10;;;;;;;;;;4994183;28;20456;-83
2021/11/21 01:12:59;;;;;;;1.02;0.93;;;;;;;;;;4998444;28;20056;-83
2021/11/21 01:15:24;;;;;;;0.00;0.00;;;;;;;;;;4995036;28;20110;-82
2021/11/21 01:17:50;;;;;;;0.17;0.17;;;;;;;;;;5003402;28;20038;-83
2021/11/21 01:20:17;;;;;;;1.35;1.17;;;;;;;;;;5008548;28;20029;-83
2021/11/21 01:22:42;;;;;;;0.20;0.20;;;;;;;;;;4979085;28;20459;-83
2021/11/21 01:25:09;;;;;;;0.30;0.10;;;;;;;;;;4993561;28;20101;-83
2021/11/21 01:27:34;;;;;;;0.22;0.22;;;;;;;;;;4990303;28;20062;-83
2021/11/21 01:30:00;;;;;;;0.10;0.10;;;;;;;;;;5006279;28;20077;-82
2021/11/21 01:32:28;;;;;;;0.15;0.15;;;;;;;;;;4993669;28;20050;-83
2021/11/21 01:34:53;;;;;;;0.10;0.10;;;;;;;;;;4994062;28;20065;-83
2021/11/21 01:37:19;;;;;;;0.35;0.35;;;;;;;;;;4993678;28;20062;-83
2021/11/21 01:39:45;;;;;;;0.13;0.13;;;;;;;;;;4996581;28;20042;-83
2021/11/21 01:42:11;;;;;;;0.00;0.00;;;;;;;;;;5005631;28;20027;-83
2021/11/21 01:44:36;;;;;;;0.10;0.10;;;;;;;;;;4981122;28;20360;-83
2021/11/21 01:47:03;;;;;;;0.35;0.35;;;;;;;;;;4993969;28;20489;-82
2021/11/21 01:49:29;;;;;;;1.02;0.95;;;;;;;;;;4993902;28;20061;-83
2021/11/21 01:51:54;;;;;;;0.00;0.00;;;;;;;;;;4994236;28;20065;-82
2021/11/21 01:54:19;;;;;;;0.38;0.38;;;;;;;;;;5008953;28;20018;-83
2021/11/21 01:56:45;;;;;;;0.45;0.45;;;;;;;;;;5001588;28;20054;-83
2021/11/21 01:59:11;;;;;;;0.10;0.10;;;;;;;;;;4994811;28;20053;-83
2021/11/21 02:01:36;;;;;;;0.03;0.03;;;;;;;;;;4983546;28;20105;-82
2021/11/21 02:04:02;;;;;;;0.22;0.22;;;;;;;;;;4993646;28;20035;-83
2021/11/21 02:06:27;;;;;;;0.00;0.00;;;;;;;;;;5005149;28;20105;-83
2021/11/21 02:08:53;;;;;;;0.10;0.10;;;;;;;;;;5007740;28;20362;-82
2021/11/21 02:11:20;;;;;;;0.10;0.10;;;;;;;;;;5000035;28;20041;-83
2021/11/21 02:13:48;;;;;;;0.10;0.10;;;;;;;;;;4999566;28;20034;-83
2021/11/21 02:16:13;;;;;;;0.10;0.10;;;;;;;;;;5013432;28;20026;-83
2021/11/21 02:18:39;;;;;;;0.43;0.43;;;;;;;;;;5002146;28;20042;-83
2021/11/21 02:21:04;;;;;;;0.10;0.10;;;;;;;;;;5016350;28;20036;-83
2021/11/21 02:23:30;;;;;;;0.15;0.15;;;;;;;;;;4997439;28;20026;-82
2021/11/21 02:25:55;;;;;;;0.08;0.08;;;;;;;;;;5015073;28;20470;-82
2021/11/21 02:28:21;;;;;;;0.10;0.10;;;;;;;;;;4998896;28;20031;-82
2021/11/21 02:30:46;;;;;;;0.10;0.10;;;;;;;;;;5001534;28;20425;-83
2021/11/21 02:33:15;;;;;;;0.10;0.10;;;;;;;;;;4997810;28;20115;-83
2021/11/21 02:35:41;;;;;;;0.10;0.10;;;;;;;;;;4997119;28;20026;-83
2021/11/21 02:38:08;;;;;;;3.10;1.48;;;;;;;;;;4976906;28;20034;-82
2021/11/21 02:40:34;;;;;;;0.10;0.10;;;;;;;;;;5007345;28;20029;-82
2021/11/21 02:42:59;;;;;;;0.88;0.88;;;;;;;;;;4997191;28;20031;-83
2021/11/21 02:45:26;;;;;;;0.10;0.10;;;;;;;;;;5003217;28;20030;-83
2021/11/21 02:47:51;;;;;;;0.10;0.10;;;;;;;;;;5009027;28;20038;-83
2021/11/21 02:50:19;;;;;;;0.10;0.10;;;;;;;;;;4996938;28;20034;-83
2021/11/21 02:52:44;;;;;;;0.10;0.10;;;;;;;;;;4998033;28;20022;-83
2021/11/21 02:55:10;;;;;;;0.10;0.10;;;;;;;;;;5001547;28;20462;-82
2021/11/21 02:57:35;;;;;;;0.10;0.10;;;;;;;;;;4996658;28;20050;-83
2021/11/21 03:00:02;;;;;;;0.10;0.10;;;;;;;;;;4996629;28;20021;-82
2021/11/21 03:02:27;;;;;;;0.17;0.17;;;;;;;;;;5003696;28;20045;-82
2021/11/21 03:04:53;;;;;;;0.10;0.10;;;;;;;;;;4996548;28;20034;-83
2021/11/21 03:07:18;;;;;;;1.35;1.00;;;;;;;;;;5009934;28;20052;-82
2021/11/21 03:09:46;;;;;;;0.00;0.00;;;;;;;;;;4999874;28;20022;-83
2021/11/21 03:12:12;;;;;;;0.32;0.32;;;;;;;;;;4986855;28;20029;-83
2021/11/21 03:14:37;;;;;;;0.10;0.10;;;;;;;;;;5002503;28;20014;-83
2021/11/21 03:17:02;;;;;;;0.75;0.47;;;;;;;;;;4996334;28;20107;-82
2021/11/21 03:19:28;;;;;;;0.15;0.15;;;;;;;;;;4994458;28;20038;-82
2021/11/21 03:21:53;;;;;;;0.10;0.10;;;;;;;;;;4996313;28;20383;-82
2021/11/21 03:24:19;;;;;;;0.10;0.10;;;;;;;;;;4996177;28;20030;-83
2021/11/21 03:26:44;;;;;;;0.30;0.30;;;;;;;;;;4996419;28;20038;-82
2021/11/21 03:29:10;;;;;;;0.45;0.45;;;;;;;;;;4995930;28;20015;-82
2021/11/21 03:31:35;;;;;;;0.05;0.05;;;;;;;;;;5003782;28;20049;-81
2021/11/21 03:34:04;;;;;;;0.10;0.10;;;;;;;;;;5010538;28;20031;-82
2021/11/21 03:36:30;;;;;;;0.10;0.10;;;;;;;;;;4988819;28;20098;-82
2021/11/21 03:38:56;;;;;;;2.65;1.95;;;;;;;;;;4995733;28;20046;-82
2021/11/21 03:41:22;;;;;;;0.10;0.10;;;;;;;;;;5002997;28;20041;-82
2021/11/21 03:43:47;;;;;;;0.10;0.10;;;;;;;;;;4998923;28;20445;-82
2021/11/21 03:46:12;;;;;;;0.10;0.10;;;;;;;;;;5015178;28;20045;-82
2021/11/21 03:48:38;;;;;;;0.10;0.10;;;;;;;;;;4996650;28;20049;-82
2021/11/21 03:51:03;;;;;;;0.40;0.40;;;;;;;;;;4995867;28;20019;-82
2021/11/21 03:53:28;;;;;;;0.28;0.28;;;;;;;;;;5008490;28;20483;-82
2021/11/21 03:55:54;;;;;;;0.40;0.40;;;;;;;;;;4995760;28;20390;-82
2021/11/21 03:58:19;;;;;;;0.10;0.10;;;;;;;;;;5003534;28;20029;-82
2021/11/21 04:00:47;;;;;;;0.00;0.00;;;;;;;;;;4999800;28;20059;-82
2021/11/21 04:03:13;;;;;;;0.10;0.10;;;;;;;;;;4995701;28;20045;-82
2021/11/21 04:05:39;;;;;;;0.10;0.10;;;;;;;;;;4995211;28;20018;-84
2021/11/21 04:08:04;;;;;;;0.10;0.10;;;;;;;;;;4995612;28;20454;-83
2021/11/21 04:10:30;;;;;;;0.10;0.10;;;;;;;;;;4995586;28;20034;-82
2021/11/21 04:12:55;;;;;;;0.10;0.10;;;;;;;;;;4995501;28;20021;-83
2021/11/21 04:15:21;;;;;;;0.10;0.10;;;;;;;;;;5002370;28;20057;-82
2021/11/21 04:17:46;;;;;;;0.10;0.10;;;;;;;;;;4995113;28;20475;-82
2021/11/21 04:20:12;;;;;;;0.10;0.10;;;;;;;;;;4995249;28;20038;-82
2021/11/21 04:22:37;;;;;;;0.10;0.10;;;;;;;;;;4995036;28;20109;-82
2021/11/21 04:25:03;;;;;;;0.75;0.75;;;;;;;;;;4995093;28;20042;-83
2021/11/21 04:27:28;;;;;;;0.10;0.10;;;;;;;;;;5009882;28;20018;-82
2021/11/21 04:29:57;;;;;;;0.10;0.10;;;;;;;;;;5005924;28;20058;-82
2021/11/21 04:32:23;;;;;;;0.35;0.35;;;;;;;;;;4994884;28;20057;-82
2021/11/21 04:34:48;;;;;;;0.10;0.10;;;;;;;;;;4995009;28;20073;-82
2021/11/21 04:37:14;;;;;;;0.15;0.15;;;;;;;;;;5003867;28;20043;-82
2021/11/21 04:39:39;;;;;;;0.10;0.10;;;;;;;;;;4994950;28;20386;-82
2021/11/21 04:42:05;;;;;;;0.10;0.10;;;;;;;;;;5001630;28;20026;-82
2021/11/21 04:44:30;;;;;;;0.10;0.10;;;;;;;;;;4994623;28;20027;-82
2021/11/21 04:46:55;;;;;;;0.10;0.10;;;;;;;;;;4985534;28;20034;-82
2021/11/21 04:49:21;;;;;;;0.10;0.10;;;;;;;;;;4995355;28;20538;-82
2021/11/21 04:51:46;;;;;;;0.10;0.10;;;;;;;;;;5013921;28;20026;-82
2021/11/21 04:54:15;;;;;;;0.10;0.10;;;;;;;;;;5011170;28;20034;-82
2021/11/21 04:56:40;;;;;;;0.82;0.77;;;;;;;;;;4994552;28;20010;-82
2021/11/21 04:59:06;;;;;;;0.10;0.10;;;;;;;;;;4994363;28;20040;-82
2021/11/21 05:01:31;;;;;;;0.10;0.10;;;;;;;;;;4997984;28;20034;-82
2021/11/21 05:03:56;;;;;;;0.10;0.10;;;;;;;;;;5007959;28;20026;-84
2021/11/21 05:06:22;;;;;;;0.10;0.10;;;;;;;;;;4989703;28;20070;-84
2021/11/21 05:08:47;;;;;;;0.10;0.10;;;;;;;;;;5007216;28;20041;-83
2021/11/21 05:11:12;;;;;;;0.10;0.10;;;;;;;;;;4994666;28;20394;-83
2021/11/21 05:13:38;;;;;;;0.10;0.10;;;;;;;;;;4997771;28;20058;-83
2021/11/21 05:16:03;;;;;;;0.10;0.10;;;;;;;;;;4994315;28;20180;-83
2021/11/21 05:18:28;;;;;;;0.10;0.10;;;;;;;;;;5006548;28;20027;-81
2021/11/21 05:20:54;;;;;;;0.10;0.10;;;;;;;;;;4998288;28;20040;-82
2021/11/21 05:23:19;;;;;;;0.47;0.47;;;;;;;;;;4994187;28;20041;-81
2021/11/21 05:25:44;;;;;;;0.10;0.10;;;;;;;;;;4994096;28;20014;-81
2021/11/21 05:28:10;;;;;;;0.00;0.00;;;;;;;;;;4994147;28;20034;-81
2021/11/21 05:30:35;;;;;;;0.52;0.52;;;;;;;;;;4994090;28;20041;-81
2021/11/21 05:33:00;;;;;;;0.10;0.10;;;;;;;;;;4993944;28;20049;-81
2021/11/21 05:35:26;;;;;;;0.30;0.30;;;;;;;;;;4993970;28;20386;-81
2021/11/21 05:37:51;;;;;;;0.10;0.10;;;;;;;;;;5011464;28;20480;-81
2021/11/21 05:40:17;;;;;;;0.82;0.82;;;;;;;;;;4999016;28;20037;-81
2021/11/21 05:42:42;;;;;;;0.10;0.10;;;;;;;;;;4998024;28;20527;-82
2021/11/21 05:45:08;;;;;;;0.52;0.52;;;;;;;;;;5002303;28;20034;-81
2021/11/21 05:47:33;;;;;;;0.10;0.10;;;;;;;;;;5013520;28;20021;-81
2021/11/21 05:49:59;;;;;;;0.10;0.10;;;;;;;;;;4998007;28;20030;-83
2021/11/21 05:52:24;;;;;;;0.10;0.10;;;;;;;;;;4998935;28;20049;-83
2021/11/21 05:54:50;;;;;;;0.10;0.10;;;;;;;;;;4999568;28;20014;-81
2021/11/21 05:57:16;;;;;;;0.10;0.10;;;;;;;;;;5006658;28;20030;-84
2021/11/21 05:59:41;;;;;;;0.10;0.10;;;;;;;;;;5008706;28;20026;-83
2021/11/21 06:02:07;;;;;;;0.10;0.10;;;;;;;;;;5005856;28;20010;-82
2021/11/21 06:04:32;;;;;;;0.10;0.10;;;;;;;;;;5013589;28;20478;-83
2021/11/21 06:06:58;;;;;;;0.10;0.10;;;;;;;;;;4997752;28;20038;-83
2021/11/21 06:09:23;;;;;;;0.10;0.10;;;;;;;;;;5007757;28;20027;-81
2021/11/21 06:11:49;;;;;;;0.10;0.10;;;;;;;;;;4986874;28;20027;-83
2021/11/21 06:14:15;;;;;;;0.10;0.10;;;;;;;;;;4999296;28;20022;-82
2021/11/21 06:16:40;;;;;;;0.10;0.10;;;;;;;;;;5006190;28;20019;-82
2021/11/21 06:19:06;;;;;;;0.10;0.10;;;;;;;;;;4997225;28;20394;-82
2021/11/21 06:21:31;;;;;;;0.10;0.10;;;;;;;;;;4991230;28;20478;-83
2021/11/21 06:23:56;;;;;;;0.28;0.28;;;;;;;;;;5016898;28;20508;-82
2021/11/21 06:26:22;;;;;;;0.10;0.10;;;;;;;;;;5004898;28;20030;-81
2021/11/21 06:28:47;;;;;;;0.10;0.10;;;;;;;;;;5001017;28;20034;-82
2021/11/21 06:31:12;;;;;;;0.10;0.10;;;;;;;;;;5000964;28;20041;-82
2021/11/21 06:33:38;;;;;;;0.10;0.10;;;;;;;;;;5009785;28;20043;-82
2021/11/21 06:36:03;;;;;;;0.10;0.10;;;;;;;;;;4997196;28;20049;-83
2021/11/21 06:38:31;;;;;;;0.10;0.10;;;;;;;;;;5007056;28;20069;-83
2021/11/21 06:40:58;;;;;;;5.38;1.13;;;;;;;;;;5016529;28;20038;-83
2021/11/21 06:43:23;;;;;;;1.08;0.82;;;;;;;;;;4997130;28;20417;-82
2021/11/21 06:45:49;;;;;;;0.65;0.65;;;;;;;;;;4991650;28;20034;-82
2021/11/21 06:48:15;;;;;;;0.20;0.20;;;;;;;;;;4989940;28;20482;-82
2021/11/21 06:50:41;;;;;;;0.10;0.10;;;;;;;;;;4991783;28;20443;-82
2021/11/21 06:53:06;;;;;;;0.63;0.63;;;;;;;;;;4999406;28;20056;-83
2021/11/21 06:55:32;;;;;;;1.92;1.13;;;;;;;;;;4996468;28;20470;-83
2021/11/21 06:57:57;;;;;;;0.28;0.28;;;;;;;;;;5000985;28;20050;-83
2021/11/21 07:00:22;;;;;;;0.10;0.10;;;;;;;;;;4997075;28;20497;-83
2021/11/21 07:02:48;;;;;;;0.10;0.10;;;;;;;;;;4996922;28;20038;-82
2021/11/21 07:05:13;;;;;;;0.10;0.10;;;;;;;;;;5001598;28;20456;-83
2021/11/21 07:07:39;;;;;;;0.10;0.10;;;;;;;;;;5015755;28;20022;-83
2021/11/21 07:10:05;;;;;;;17.35;0.90;;;;;;;;;;5012617;28;20093;-83
2021/11/21 07:12:31;;;;;;;0.10;0.10;;;;;;;;;;4999090;28;20080;-82
2021/11/21 07:14:57;;;;;;;0.10;0.10;;;;;;;;;;4997211;28;20022;-83
2021/11/21 07:17:22;;;;;;;0.10;0.10;;;;;;;;;;4995532;28;20069;-82
2021/11/21 07:19:47;;;;;;;0.10;0.10;;;;;;;;;;4996290;28;20035;-83
2021/11/21 07:22:13;;;;;;;0.10;0.10;;;;;;;;;;5000702;28;20449;-82
2021/11/21 07:24:38;;;;;;;0.95;0.85;;;;;;;;;;5015505;28;20078;-81
2021/11/21 07:27:03;;;;;;;0.10;0.10;;;;;;;;;;5011693;28;20485;-82
2021/11/21 07:29:29;;;;;;;0.10;0.10;;;;;;;;;;5005465;28;20049;-82
2021/11/21 07:31:58;;;;;;;0.10;0.10;;;;;;;;;;4997810;28;20042;-83
2021/11/21 07:34:23;;;;;;;0.10;0.10;;;;;;;;;;4976717;28;20089;-83
2021/11/21 07:36:49;;;;;;;0.10;0.10;;;;;;;;;;4979005;28;20019;-83
2021/11/21 07:39:14;;;;;;;0.10;0.10;;;;;;;;;;4985135;28;20097;-81
2021/11/21 07:41:39;;;;;;;0.00;0.00;;;;;;;;;;4979918;28;20037;-81
2021/11/21 07:44:07;;;;;;;0.10;0.10;;;;;;;;;;4976748;28;20050;-81
2021/11/21 07:46:32;;;;;;;0.40;0.40;;;;;;;;;;4976711;28;20023;-81
2021/11/21 07:48:57;;;;;;;0.10;0.10;;;;;;;;;;4976541;28;20094;-81
2021/11/21 07:51:23;;;;;;;0.10;0.10;;;;;;;;;;4976539;28;20038;-81
2021/11/21 07:53:48;;;;;;;0.10;0.10;;;;;;;;;;4976189;28;20030;-81
2021/11/21 07:56:13;;;;;;;0.10;0.10;;;;;;;;;;4976319;28;20037;-82
2021/11/21 07:58:39;;;;;;;0.10;0.10;;;;;;;;;;4975426;28;20459;-82
2021/11/21 08:01:05;;;;;;;0.10;0.10;;;;;;;;;;4978007;28;20039;-81
2021/11/21 08:03:30;;;;;;;0.10;0.10;;;;;;;;;;4975931;28;20046;-81
2021/11/21 08:05:55;;;;;;;0.10;0.10;;;;;;;;;;4976218;28;20025;-80
2021/11/21 08:08:21;;;;;;;0.10;0.10;;;;;;;;;;4977540;28;20035;-80
2021/11/21 08:10:46;;;;;;;0.10;0.10;;;;;;;;;;4984072;28;20062;-81
2021/11/21 08:13:11;;;;;;;0.10;0.10;;;;;;;;;;4976083;28;20015;-80
2021/11/21 08:15:37;;;;;;;0.20;0.20;;;;;;;;;;4975895;28;20053;-80
2021/11/21 08:18:02;;;;;;;0.10;0.10;;;;;;;;;;4975532;28;20519;-80
2021/11/21 08:20:28;;;;;;;0.10;0.10;;;;;;;;;;4975849;28;20451;-80
2021/11/21 08:22:54;;;;;;;0.22;0.22;;;;;;;;;;4975399;28;20026;-81
2021/11/21 08:25:19;;;;;;;1.40;1.27;;;;;;;;;;4975309;28;20035;-81
2021/11/21 08:27:44;;;;;;;0.10;0.10;;;;;;;;;;4975466;28;20451;-81
2021/11/21 08:30:10;;;;;;;0.28;0.28;;;;;;;;;;4975704;28;20474;-81
2021/11/21 08:32:35;;;;;;;0.10;0.10;;;;;;;;;;4975020;28;20491;-81
2021/11/21 08:35:01;;;;;;;0.10;0.10;;;;;;;;;;4975284;28;20089;-81
2021/11/21 08:37:26;;;;;;;0.63;0.63;;;;;;;;;;4975589;28;20042;-81
2021/11/21 08:39:52;;;;;;;0.30;0.30;;;;;;;;;;4975445;28;20066;-83
2021/11/21 08:42:17;;;;;;;0.22;0.22;;;;;;;;;;4975910;28;20129;-82
2021/11/21 08:44:43;;;;;;;0.55;0.55;;;;;;;;;;4976173;28;20030;-83
2021/11/21 08:47:10;;;;;;;0.10;0.10;;;;;;;;;;4985116;28;20034;-83
2021/11/21 08:49:36;;;;;;;0.05;0.05;;;;;;;;;;4981599;28;20102;-83
2021/11/21 08:52:01;;;;;;;0.10;0.10;;;;;;;;;;4967752;28;20140;-85
2021/11/21 08:54:26;;;;;;;0.25;0.25;;;;;;;;;;4974067;28;20043;-83
2021/11/21 08:56:52;;;;;;;0.00;0.00;;;;;;;;;;4974902;28;20050;-83
2021/11/21 08:59:19;;;;;;;0.15;0.15;;;;;;;;;;4974155;28;20498;-83
2021/11/21 09:01:44;;;;;;;0.00;0.00;;;;;;;;;;4974246;28;20039;-84
2021/11/21 09:04:11;;;;;;;4.28;1.17;;;;;;;;;;4973172;28;20107;-83
2021/11/21 09:06:36;;;;;;;0.17;0.17;;;;;;;;;;4973246;28;20537;-84
2021/11/21 09:09:02;;;;;;;1.42;0.60;;;;;;;;;;4974685;28;20027;-84
2021/11/21 09:11:28;;;;;;;1.55;0.63;;;;;;;;;;4974941;28;20471;-84
2021/11/21 09:13:53;;;;;;;0.60;0.60;;;;;;;;;;4974580;28;20034;-84
2021/11/21 09:16:18;;;;;;;0.10;0.10;;;;;;;;;;4974446;28;20464;-83
2021/11/21 09:18:44;;;;;;;0.00;0.00;;;;;;;;;;4978271;28;20022;-83
2021/11/21 09:21:10;;;;;;;0.28;0.28;;;;;;;;;;4974900;28;20031;-84
2021/11/21 09:23:36;;;;;;;0.10;0.10;;;;;;;;;;4954231;29;20031;-84
2021/11/21 09:26:01;;;;;;;0.10;0.10;;;;;;;;;;4967272;28;20022;-84
2021/11/21 09:28:26;;;;;;;1.95;1.13;;;;;;;;;;4974454;28;20443;-84
2021/11/21 09:30:53;;;;;;;0.05;0.05;;;;;;;;;;4974742;28;20050;-84
2021/11/21 09:33:18;;;;;;;0.00;0.00;;;;;;;;;;4974630;28;20398;-84
2021/11/21 09:35:45;;;;;;;0.17;0.17;;;;;;;;;;4974478;28;20404;-83
2021/11/21 09:38:10;;;;;;;0.10;0.10;;;;;;;;;;4974668;28;20046;-83
2021/11/21 09:40:35;;;;;;;0.10;0.10;;;;;;;;;;4974556;28;20360;-84
2021/11/21 09:43:01;;;;;;;0.45;0.45;;;;;;;;;;4974818;28;20438;-84
2021/11/21 09:45:27;;;;;;;0.10;0.10;;;;;;;;;;4974611;28;20070;-84
2021/11/21 09:47:54;;;;;;;0.30;0.30;;;;;;;;;;4974428;28;20444;-85
2021/11/21 09:50:20;;;;;;;0.00;0.00;;;;;;;;;;4972620;28;20031;-85
2021/11/21 09:52:46;;;;;;;0.75;0.75;;;;;;;;;;4973311;28;20037;-84
2021/11/21 09:55:11;;;;;;;0.30;0.30;;;;;;;;;;4974087;28;20402;-85
2021/11/21 09:57:37;;;;;;;0.00;0.00;;;;;;;;;;4974211;28;20046;-85
2021/11/21 10:00:07;;;;;;;0.10;0.10;;;;;;;;;;4973992;28;20038;-85
2021/11/21 10:02:34;;;;;;;0.98;0.77;;;;;;;;;;4965213;28;20090;-85
2021/11/21 10:05:15;;;;;;;0.00;0.00;;;;;;;;;;4970694;28;20030;-85
2021/11/21 10:07:40;;;;;;;0.00;0.00;;;;;;;;;;4971951;28;20025;-85
2021/11/21 10:10:10;;;;;;;2.35;0.73;;;;;;;;;;4974143;28;20383;-85
2021/11/21 10:12:36;;;;;;;0.05;0.05;;;;;;;;;;4974052;28;20114;-85
2021/11/21 10:38:24;;;;;;;0.10;0.10;;;;;;;;;;4791525;29;20210;-84
2021/11/21 10:44:50;;;;;;;0.00;0.00;;;;;;;;;;4741230;29;20194;-84
2021/11/21 10:58:12;;;;;;;0.00;0.00;;;;;;;;;;4850463;28;20580;-85
2021/11/21 11:07:43;;;;;;;0.00;0.00;;;;;;;;;;4862854;28;20172;-86
2021/11/21 11:33:50;;;;;;;0.10;0.10;;;;;;;;;;4827588;28;20240;-87
2021/11/21 11:44:08;;;;;;;;;;;;;;;;;;;;;
2021/11/21 11:54:03;;;;;;;0.03;0.03;;;;;;;;;;4837633;28;20176;-85
2021/11/21 12:03:09;;;;;;;0.63;0.63;;;;;;;;;;4873996;28;20144;-85
2021/11/21 13:44:54;;;;;;;0.08;0.08;;;;;;;;;;4883242;28;20134;-87
2021/11/21 13:47:24;;;;;;;0.10;0.10;;;;;;;;;;4993659;28;20031;-86
2021/11/21 13:49:50;;;;;;;0.10;0.10;;;;;;;;;;4994940;28;20018;-88
2021/11/21 13:52:20;;;;;;;0.00;0.00;;;;;;;;;;4993790;28;20022;-89
2021/11/21 13:54:47;;;;;;;0.10;0.10;;;;;;;;;;5009749;28;20025;-89
2021/11/21 13:57:17;;;;;;;0.00;0.00;;;;;;;;;;5000476;28;20109;-88
2021/11/21 13:59:42;;;;;;;0.00;0.00;;;;;;;;;;5005235;28;20375;-88
2021/11/21 14:02:08;;;;;;;0.00;0.00;;;;;;;;;;4994008;28;20026;-88
2021/11/21 14:04:35;;;;;;;0.10;0.10;;;;;;;;;;4993905;28;20022;-88
2021/11/21 14:07:11;;;;;;;0.10;0.10;;;;;;;;;;4999968;28;20469;-88
2021/11/21 14:09:52;;;;;;;0.20;0.20;;;;;;;;;;4995582;28;20048;-89
2021/11/21 14:12:21;;;;;;;0.00;0.00;;;;;;;;;;4994071;28;20011;-89
2021/11/21 14:15:01;;;;;;;0.10;0.10;;;;;;;;;;5004212;28;20042;-87
2021/11/21 14:17:26;;;;;;;0.00;0.00;;;;;;;;;;5001146;28;20105;-86
2021/11/21 14:19:51;;;;;;;0.08;0.08;;;;;;;;;;5008041;28;20124;-86
2021/11/21 14:22:18;;;;;;;0.00;0.00;;;;;;;;;;4997488;28;20053;-86
2021/11/21 14:24:44;;;;;;;0.00;0.00;;;;;;;;;;4998505;28;20491;-86
2021/11/21 14:27:22;;;;;;;0.00;0.00;;;;;;;;;;5001381;28;20061;-86
2021/11/21 14:29:59;;;;;;;0.00;0.00;;;;;;;;;;4996125;28;20026;-85
2021/11/21 14:32:24;;;;;;;0.35;0.17;;;;;;;;;;4997085;28;20038;-85
2021/11/21 14:34:50;;;;;;;0.32;0.32;;;;;;;;;;5007977;28;20073;-85
2021/11/21 14:37:17;;;;;;;0.10;0.10;;;;;;;;;;5013110;28;20382;-85
2021/11/21 14:39:42;;;;;;;0.00;0.00;;;;;;;;;;5011464;28;20117;-86
2021/11/21 14:42:11;;;;;;;0.10;0.10;;;;;;;;;;4996853;28;20057;-87
2021/11/21 14:44:37;;;;;;;0.10;0.10;;;;;;;;;;4997164;28;20061;-88
2021/11/21 14:47:03;;;;;;;0.10;0.10;;;;;;;;;;5006800;28;20029;-88
2021/11/21 14:49:29;;;;;;;0.10;0.10;;;;;;;;;;5008181;28;20022;-87
2021/11/21 14:51:54;;;;;;;0.63;0.63;;;;;;;;;;5001392;28;20038;-87
2021/11/21 14:54:22;;;;;;;0.75;0.45;;;;;;;;;;4997334;28;20096;-86
2021/11/21 14:56:57;;;;;;;0.10;0.10;;;;;;;;;;5011579;28;20113;-87
2021/11/21 14:59:22;;;;;;;0.10;0.10;;;;;;;;;;5003111;28;20113;-87
2021/11/21 15:01:48;;;;;;;0.10;0.10;;;;;;;;;;4996910;28;20128;-87
2021/11/21 15:04:13;;;;;;;0.10;0.10;;;;;;;;;;4996707;28;20038;-87
2021/11/21 15:06:38;;;;;;;0.00;0.00;;;;;;;;;;5001661;28;20030;-87
2021/11/21 15:09:05;;;;;;;1.30;1.25;;;;;;;;;;5000607;28;20038;-87
2021/11/21 15:11:31;;;;;;;0.10;0.10;;;;;;;;;;5002137;28;20521;-89
2021/11/21 15:13:57;;;;;;;0.10;0.10;;;;;;;;;;4994289;28;20019;-87
2021/11/21 15:16:23;;;;;;;0.03;0.03;;;;;;;;;;4983149;28;20031;-86
2021/11/21 15:18:48;;;;;;;0.00;0.00;;;;;;;;;;4997946;28;20556;-86
2021/11/21 15:21:15;;;;;;;0.10;0.10;;;;;;;;;;5001115;28;20143;-87
2021/11/21 15:23:43;;;;;;;6.63;0.80;;;;;;;;;;5007651;28;20562;-88
2021/11/21 15:26:10;;;;;;;1.23;1.13;;;;;;;;;;5000805;28;20030;-86
2021/11/21 15:28:35;;;;;;;0.10;0.10;;;;;;;;;;4996957;28;20022;-88
2021/11/21 15:31:00;;;;;;;0.10;0.10;;;;;;;;;;5006340;28;20693;-87
2021/11/21 15:33:25;;;;;;;0.00;0.00;;;;;;;;;;4995535;28;20030;-88
2021/11/21 15:35:51;;;;;;;0.10;0.10;;;;;;;;;;4995810;28;20022;-89
2021/11/21 15:38:16;;;;;;;0.10;0.10;;;;;;;;;;4997670;28;20141;-89
2021/11/21 15:40:42;;;;;;;0.00;0.00;;;;;;;;;;5014633;28;20029;-86
2021/11/21 15:43:07;;;;;;;0.10;0.10;;;;;;;;;;5008382;28;20025;-87
2021/11/21 15:45:32;;;;;;;0.10;0.10;;;;;;;;;;5007114;28;20169;-87
2021/11/21 15:48:00;;;;;;;0.00;0.00;;;;;;;;;;4996616;28;20118;-88
2021/11/21 15:50:25;;;;;;;1.73;1.02;;;;;;;;;;4998747;28;20018;-87
2021/11/21 15:52:50;;;;;;;0.08;0.08;;;;;;;;;;5001060;28;20026;-88
2021/11/21 15:55:16;;;;;;;0.00;0.00;;;;;;;;;;4995408;28;20034;-88
2021/11/21 15:57:41;;;;;;;0.10;0.10;;;;;;;;;;5000692;28;20057;-87
2021/11/21 16:00:08;;;;;;;0.00;0.00;;;;;;;;;;5014372;28;20136;-87
2021/11/21 16:02:33;;;;;;;0.10;0.10;;;;;;;;;;5001430;28;20072;-86
2021/11/21 16:04:58;;;;;;;0.10;0.10;;;;;;;;;;5001111;28;20046;-88
2021/11/21 16:07:24;;;;;;;0.10;0.10;;;;;;;;;;5014444;28;20061;-87
2021/11/21 16:09:49;;;;;;;0.20;0.20;;;;;;;;;;4980310;28;20555;-87
2021/11/21 16:12:14;;;;;;;0.10;0.10;;;;;;;;;;4994959;28;20515;-87
2021/11/21 16:14:40;;;;;;;0.20;0.20;;;;;;;;;;4977956;28;20085;-88
2021/11/21 16:17:09;;;;;;;0.10;0.10;;;;;;;;;;4990814;28;20560;-87
2021/11/21 16:19:35;;;;;;;0.10;0.10;;;;;;;;;;5012047;28;20049;-88
2021/11/21 16:22:00;;;;;;;0.10;0.10;;;;;;;;;;4986179;28;20391;-86
2021/11/21 16:24:25;;;;;;;0.10;0.10;;;;;;;;;;4988917;28;20030;-87
2021/11/21 16:26:51;;;;;;;0.10;0.10;;;;;;;;;;4999102;28;20027;-86
2021/11/21 16:29:17;;;;;;;0.10;0.10;;;;;;;;;;5001746;28;20028;-86
2021/11/21 16:31:45;;;;;;;0.05;0.05;;;;;;;;;;4994611;28;20037;-87
2021/11/21 16:34:11;;;;;;;0.10;0.10;;;;;;;;;;4994668;28;20691;-86
2021/11/21 16:36:36;;;;;;;0.10;0.10;;;;;;;;;;4994109;28;20028;-87
2021/11/21 16:39:03;;;;;;;0.10;0.10;;;;;;;;;;4994289;28;20454;-87
2021/11/21 16:41:30;;;;;;;0.10;0.10;;;;;;;;;;4996601;28;20048;-87
2021/11/21 16:44:01;;;;;;;0.10;0.10;;;;;;;;;;4995120;28;20386;-87
2021/11/21 16:46:27;;;;;;;0.40;0.22;;;;;;;;;;4994449;28;20104;-88
2021/11/21 16:48:52;;;;;;;0.10;0.10;;;;;;;;;;4997125;28;20019;-88
2021/11/21 16:51:17;;;;;;;0.63;0.63;;;;;;;;;;5006415;28;20030;-88
2021/11/21 16:53:43;;;;;;;0.20;0.20;;;;;;;;;;4994469;28;20026;-90
2021/11/21 16:56:09;;;;;;;0.10;0.10;;;;;;;;;;4994182;28;20022;-90
2021/11/21 16:58:35;;;;;;;0.40;0.40;;;;;;;;;;4994038;28;20034;-90
2021/11/21 17:01:00;;;;;;;0.10;0.10;;;;;;;;;;4994177;28;20041;-91
2021/11/21 17:03:26;;;;;;;0.10;0.10;;;;;;;;;;4994693;28;20018;-91
2021/11/21 17:05:52;;;;;;;0.08;0.08;;;;;;;;;;4998657;28;20385;-92
2021/11/21 17:08:18;;;;;;;0.10;0.10;;;;;;;;;;4997276;28;20037;-91
2021/11/21 17:10:44;;;;;;;0.10;0.10;;;;;;;;;;5010795;28;20022;-89
2021/11/21 17:13:09;;;;;;;0.40;0.40;;;;;;;;;;5008906;28;20026;-91
2021/11/21 17:15:34;;;;;;;0.10;0.10;;;;;;;;;;5006985;28;20139;-90
2021/11/21 17:18:00;;;;;;;0.00;0.00;;;;;;;;;;4976075;28;20034;-92
2021/11/21 17:20:26;;;;;;;0.10;0.10;;;;;;;;;;4973463;28;20085;-91
2021/11/21 17:22:53;;;;;;;0.10;0.10;;;;;;;;;;4995263;28;20035;-92
2021/11/21 17:25:18;;;;;;;0.10;0.10;;;;;;;;;;4993407;28;20022;-91
2021/11/21 17:27:44;;;;;;;0.00;0.00;;;;;;;;;;4995318;28;20120;-90
2021/11/21 17:30:09;;;;;;;0.10;0.10;;;;;;;;;;4998000;28;20041;-92
2021/11/21 17:32:35;;;;;;;0.00;0.00;;;;;;;;;;4992946;28;20038;-91
2021/11/21 17:35:01;;;;;;;0.10;0.10;;;;;;;;;;4995170;28;20030;-93
2021/11/21 17:37:27;;;;;;;0.10;0.10;;;;;;;;;;4997454;28;20025;-92
2021/11/21 17:39:54;;;;;;;0.25;0.25;;;;;;;;;;4999057;28;20069;-93
2021/11/21 17:42:21;;;;;;;0.00;0.00;;;;;;;;;;4998912;28;20037;-92
2021/11/21 17:44:47;;;;;;;0.10;0.10;;;;;;;;;;4996857;28;20054;-90
2021/11/21 17:47:12;;;;;;;0.13;0.13;;;;;;;;;;4974390;28;20025;-90